sensor_id;sensor_type;location;lat;lon;timestamp;temperature;humidity
8953;DHT22;4511;50.890;8.054;2023-12-29T00:01:40;8.00;1.00
8953;DHT22;4511;50.890;8.054;2023-12-29T00:04:07;7.90;1.00
8953;DHT22;4511;50.890;8.054;2023-12-29T00:06:37;8.00;1.00
8953;DHT22;4511;50.890;8.054;2023-12-29T00:09:04;8.00;1.00
8953;DHT22;4511;50.890;8.054;2023-12-29T00:11:31;8.10;1.00
8953;DHT22;4511;50.890;8.054;2023-12-29T00:13:58;8.10;1.00
8953;DHT22;4511;50.890;8.054;2023-12-29T00:16:25;8.00;1.00
8953;DHT22;4511;50.890;8.054;2023-12-29T00:18:55;8.00;1.00
8953;DHT22;4511;50.890;8.054;2023-12-29T00:21:21;8.00;1.00
8953;DHT22;4511;50.890;8.054;2023-12-29T00:23:48;8.00;1.00
8953;DHT22;4511;50.890;8.054;2023-12-29T00:26:16;8.00;1.00
8953;DHT22;4511;50.890;8.054;2023-12-29T00:28:43;8.10;1.00
8953;DHT22;4511;50.890;8.054;2023-12-29T00:31:13;8.00;1.00
8953;DHT22;4511;50.890;8.054;2023-12-29T00:33:40;8.10;1.00
8953;DHT22;4511;50.890;8.054;2023-12-29T00:36:14;8.10;99.90
8953;DHT22;4511;50.890;8.054;2023-12-29T00:38:41;8.10;1.00
8953;DHT22;4511;50.890;8.054;2023-12-29T00:41:08;8.10;99.90
8953;DHT22;4511;50.890;8.054;2023-12-29T00:43:35;8.10;99.90
8953;DHT22;4511;50.890;8.054;2023-12-29T00:46:03;8.10;1.00
8953;DHT22;4511;50.890;8.054;2023-12-29T00:48:30;8.10;99.90
8953;DHT22;4511;50.890;8.054;2023-12-29T00:50:56;8.10;99.90
8953;DHT22;4511;50.890;8.054;2023-12-29T00:53:26;8.10;1.00
8953;DHT22;4511;50.890;8.054;2023-12-29T00:55:52;8.10;99.90
8953;DHT22;4511;50.890;8.054;2023-12-29T00:58:19;8.10;1.00
8953;DHT22;4511;50.890;8.054;2023-12-29T01:00:46;8.10;1.00
8953;DHT22;4511;50.890;8.054;2023-12-29T01:03:13;8.10;1.00
8953;DHT22;4511;50.890;8.054;2023-12-29T01:05:40;8.10;99.90
8953;DHT22;4511;50.890;8.054;2023-12-29T01:08:07;8.10;1.00
8953;DHT22;4511;50.890;8.054;2023-12-29T01:10:35;8.10;99.90
8953;DHT22;4511;50.890;8.054;2023-12-29T01:13:02;8.10;1.00
8953;DHT22;4511;50.890;8.054;2023-12-29T01:15:28;8.10;85.20
8953;DHT22;4511;50.890;8.054;2023-12-29T01:17:55;8.10;1.00
8953;DHT22;4511;50.890;8.054;2023-12-29T01:20:22;8.20;1.00
8953;DHT22;4511;50.890;8.054;2023-12-29T01:22:49;8.10;99.90
8953;DHT22;4511;50.890;8.054;2023-12-29T01:25:15;8.10;99.90
8953;DHT22;4511;50.890;8.054;2023-12-29T01:27:44;8.20;99.90
8953;DHT22;4511;50.890;8.054;2023-12-29T01:30:11;8.30;1.00
8953;DHT22;4511;50.890;8.054;2023-12-29T01:32:38;8.20;1.00
8953;DHT22;4511;50.890;8.054;2023-12-29T01:35:05;8.30;1.00
8953;DHT22;4511;50.890;8.054;2023-12-29T01:37:32;8.30;1.00
8953;DHT22;4511;50.890;8.054;2023-12-29T01:39:59;8.30;1.00
8953;DHT22;4511;50.890;8.054;2023-12-29T01:42:26;8.20;1.00
8953;DHT22;4511;50.890;8.054;2023-12-29T01:44:54;8.20;99.90
8953;DHT22;4511;50.890;8.054;2023-12-29T01:47:22;8.20;99.90
8953;DHT22;4511;50.890;8.054;2023-12-29T01:49:49;8.20;99.90
8953;DHT22;4511;50.890;8.054;2023-12-29T01:52:17;8.20;1.00
8953;DHT22;4511;50.890;8.054;2023-12-29T01:54:46;8.30;1.00
8953;DHT22;4511;50.890;8.054;2023-12-29T01:57:14;8.30;1.00
8953;DHT22;4511;50.890;8.054;2023-12-29T01:59:41;8.20;1.00
8953;DHT22;4511;50.890;8.054;2023-12-29T02:02:10;8.30;1.00
8953;DHT22;4511;50.890;8.054;2023-12-29T02:04:37;8.30;99.90
8953;DHT22;4511;50.890;8.054;2023-12-29T02:07:05;8.20;99.90
8953;DHT22;4511;50.890;8.054;2023-12-29T02:09:32;8.30;1.00
8953;DHT22;4511;50.890;8.054;2023-12-29T02:12:00;8.30;1.00
8953;DHT22;4511;50.890;8.054;2023-12-29T02:14:27;8.30;99.90
8953;DHT22;4511;50.890;8.054;2023-12-29T02:17:01;8.30;1.00
8953;DHT22;4511;50.890;8.054;2023-12-29T02:19:37;8.30;1.00
8953;DHT22;4511;50.890;8.054;2023-12-29T02:22:05;8.30;1.00
8953;DHT22;4511;50.890;8.054;2023-12-29T02:24:33;8.30;1.00
8953;DHT22;4511;50.890;8.054;2023-12-29T02:27:11;8.30;99.90
8953;DHT22;4511;50.890;8.054;2023-12-29T02:29:40;8.30;1.00
8953;DHT22;4511;50.890;8.054;2023-12-29T02:32:11;8.30;1.00
8953;DHT22;4511;50.890;8.054;2023-12-29T02:34:41;8.40;1.00
8953;DHT22;4511;50.890;8.054;2023-12-29T02:37:08;8.40;1.00
8953;DHT22;4511;50.890;8.054;2023-12-29T02:39:36;8.40;1.00
8953;DHT22;4511;50.890;8.054;2023-12-29T02:42:05;8.30;1.00
8953;DHT22;4511;50.890;8.054;2023-12-29T02:44:31;8.30;1.00
8953;DHT22;4511;50.890;8.054;2023-12-29T02:46:58;8.30;1.00
8953;DHT22;4511;50.890;8.054;2023-12-29T02:49:26;8.30;1.00
8953;DHT22;4511;50.890;8.054;2023-12-29T02:51:53;8.30;1.00
8953;DHT22;4511;50.890;8.054;2023-12-29T02:54:20;8.30;1.00
8953;DHT22;4511;50.890;8.054;2023-12-29T02:56:46;8.30;1.00
8953;DHT22;4511;50.890;8.054;2023-12-29T02:59:15;8.30;1.00
8953;DHT22;4511;50.890;8.054;2023-12-29T03:01:44;8.40;1.00
8953;DHT22;4511;50.890;8.054;2023-12-29T03:04:12;8.40;1.00
8953;DHT22;4511;50.890;8.054;2023-12-29T03:06:40;8.30;1.00
8953;DHT22;4511;50.890;8.054;2023-12-29T03:09:07;8.20;1.00
8953;DHT22;4511;50.890;8.054;2023-12-29T03:11:33;8.30;1.00
8953;DHT22;4511;50.890;8.054;2023-12-29T03:14:00;8.30;1.00
8953;DHT22;4511;50.890;8.054;2023-12-29T03:16:28;8.30;1.00
8953;DHT22;4511;50.890;8.054;2023-12-29T03:18:55;8.30;1.00
8953;DHT22;4511;50.890;8.054;2023-12-29T03:21:22;8.30;1.00
8953;DHT22;4511;50.890;8.054;2023-12-29T03:23:48;8.30;1.00
8953;DHT22;4511;50.890;8.054;2023-12-29T03:26:16;8.30;1.00
8953;DHT22;4511;50.890;8.054;2023-12-29T03:28:42;8.40;1.00
8953;DHT22;4511;50.890;8.054;2023-12-29T03:31:09;8.40;1.00
8953;DHT22;4511;50.890;8.054;2023-12-29T03:33:37;8.40;1.00
8953;DHT22;4511;50.890;8.054;2023-12-29T03:36:05;8.40;1.00
8953;DHT22;4511;50.890;8.054;2023-12-29T03:38:33;8.40;1.00
8953;DHT22;4511;50.890;8.054;2023-12-29T03:41:00;8.30;1.00
8953;DHT22;4511;50.890;8.054;2023-12-29T03:43:26;8.40;1.00
8953;DHT22;4511;50.890;8.054;2023-12-29T03:45:53;8.40;1.00
8953;DHT22;4511;50.890;8.054;2023-12-29T03:48:20;8.50;1.00
8953;DHT22;4511;50.890;8.054;2023-12-29T03:50:48;8.40;1.00
8953;DHT22;4511;50.890;8.054;2023-12-29T03:53:15;8.40;1.00
8953;DHT22;4511;50.890;8.054;2023-12-29T03:55:43;8.40;1.00
8953;DHT22;4511;50.890;8.054;2023-12-29T03:58:10;8.40;1.00
8953;DHT22;4511;50.890;8.054;2023-12-29T04:00:37;8.40;1.00
8953;DHT22;4511;50.890;8.054;2023-12-29T04:03:07;8.40;68.30
8953;DHT22;4511;50.890;8.054;2023-12-29T04:05:33;8.40;81.50
8953;DHT22;4511;50.890;8.054;2023-12-29T04:08:02;8.40;99.80
8953;DHT22;4511;50.890;8.054;2023-12-29T04:10:28;8.40;99.90
8953;DHT22;4511;50.890;8.054;2023-12-29T04:12:55;8.40;99.90
8953;DHT22;4511;50.890;8.054;2023-12-29T04:15:22;8.40;99.80
8953;DHT22;4511;50.890;8.054;2023-12-29T04:17:49;8.40;99.90
8953;DHT22;4511;50.890;8.054;2023-12-29T04:20:15;8.40;99.90
8953;DHT22;4511;50.890;8.054;2023-12-29T04:22:42;8.30;99.90
8953;DHT22;4511;50.890;8.054;2023-12-29T04:25:10;8.30;99.90
8953;DHT22;4511;50.890;8.054;2023-12-29T04:27:37;8.30;99.90
8953;DHT22;4511;50.890;8.054;2023-12-29T04:30:05;8.40;99.30
8953;DHT22;4511;50.890;8.054;2023-12-29T04:32:32;8.30;99.90
8953;DHT22;4511;50.890;8.054;2023-12-29T04:34:58;8.40;99.90
8953;DHT22;4511;50.890;8.054;2023-12-29T04:37:25;8.40;99.90
8953;DHT22;4511;50.890;8.054;2023-12-29T04:39:52;8.40;99.90
8953;DHT22;4511;50.890;8.054;2023-12-29T04:42:20;8.40;99.90
8953;DHT22;4511;50.890;8.054;2023-12-29T04:44:47;8.40;99.90
8953;DHT22;4511;50.890;8.054;2023-12-29T04:47:13;8.30;99.90
8953;DHT22;4511;50.890;8.054;2023-12-29T04:49:40;8.40;99.90
8953;DHT22;4511;50.890;8.054;2023-12-29T04:52:07;8.40;99.90
8953;DHT22;4511;50.890;8.054;2023-12-29T04:54:34;8.40;99.90
8953;DHT22;4511;50.890;8.054;2023-12-29T04:57:01;8.40;99.90
8953;DHT22;4511;50.890;8.054;2023-12-29T04:59:29;8.40;99.90
8953;DHT22;4511;50.890;8.054;2023-12-29T05:01:55;8.40;99.90
8953;DHT22;4511;50.890;8.054;2023-12-29T05:04:22;8.40;99.90
8953;DHT22;4511;50.890;8.054;2023-12-29T05:06:49;8.40;99.90
8953;DHT22;4511;50.890;8.054;2023-12-29T05:09:16;8.40;99.90
8953;DHT22;4511;50.890;8.054;2023-12-29T05:11:43;8.50;99.90
8953;DHT22;4511;50.890;8.054;2023-12-29T05:14:09;8.40;99.90
8953;DHT22;4511;50.890;8.054;2023-12-29T05:16:37;8.50;99.90
8953;DHT22;4511;50.890;8.054;2023-12-29T05:19:04;8.50;99.90
8953;DHT22;4511;50.890;8.054;2023-12-29T05:21:31;8.50;99.90
8953;DHT22;4511;50.890;8.054;2023-12-29T05:23:58;8.50;99.90
8953;DHT22;4511;50.890;8.054;2023-12-29T05:26:24;8.50;99.90
8953;DHT22;4511;50.890;8.054;2023-12-29T05:28:51;8.50;99.90
8953;DHT22;4511;50.890;8.054;2023-12-29T05:31:18;8.50;99.90
8953;DHT22;4511;50.890;8.054;2023-12-29T05:33:46;8.60;99.90
8953;DHT22;4511;50.890;8.054;2023-12-29T05:36:13;8.50;99.90
8953;DHT22;4511;50.890;8.054;2023-12-29T05:38:40;8.50;99.90
8953;DHT22;4511;50.890;8.054;2023-12-29T05:41:07;8.50;99.90
8953;DHT22;4511;50.890;8.054;2023-12-29T05:43:34;8.50;99.90
8953;DHT22;4511;50.890;8.054;2023-12-29T05:46:01;8.60;99.90
8953;DHT22;4511;50.890;8.054;2023-12-29T05:48:27;8.60;99.70
8953;DHT22;4511;50.890;8.054;2023-12-29T05:50:56;8.60;99.40
8953;DHT22;4511;50.890;8.054;2023-12-29T05:53:22;8.60;99.90
8953;DHT22;4511;50.890;8.054;2023-12-29T05:55:49;8.60;99.90
8953;DHT22;4511;50.890;8.054;2023-12-29T05:58:16;8.60;99.90
8953;DHT22;4511;50.890;8.054;2023-12-29T06:00:42;8.60;99.90
8953;DHT22;4511;50.890;8.054;2023-12-29T06:03:10;8.60;99.90
8953;DHT22;4511;50.890;8.054;2023-12-29T06:05:36;8.60;99.90
8953;DHT22;4511;50.890;8.054;2023-12-29T06:08:06;8.50;99.90
8953;DHT22;4511;50.890;8.054;2023-12-29T06:10:33;8.40;99.90
8953;DHT22;4511;50.890;8.054;2023-12-29T06:13:01;8.50;99.90
8953;DHT22;4511;50.890;8.054;2023-12-29T06:15:28;8.40;97.30
8953;DHT22;4511;50.890;8.054;2023-12-29T06:17:55;8.40;1.00
8953;DHT22;4511;50.890;8.054;2023-12-29T06:20:21;8.40;1.00
8953;DHT22;4511;50.890;8.054;2023-12-29T06:22:48;8.40;1.00
8953;DHT22;4511;50.890;8.054;2023-12-29T06:25:16;8.40;1.00
8953;DHT22;4511;50.890;8.054;2023-12-29T06:27:43;8.40;99.90
8953;DHT22;4511;50.890;8.054;2023-12-29T06:30:10;8.40;99.90
8953;DHT22;4511;50.890;8.054;2023-12-29T06:32:37;8.40;99.90
8953;DHT22;4511;50.890;8.054;2023-12-29T06:35:06;8.40;10.00
8953;DHT22;4511;50.890;8.054;2023-12-29T06:37:33;8.40;99.90
8953;DHT22;4511;50.890;8.054;2023-12-29T06:39:59;8.40;99.90
8953;DHT22;4511;50.890;8.054;2023-12-29T06:42:28;8.40;1.00
8953;DHT22;4511;50.890;8.054;2023-12-29T06:44:54;8.40;1.00
8953;DHT22;4511;50.890;8.054;2023-12-29T06:47:21;8.40;1.00
8953;DHT22;4511;50.890;8.054;2023-12-29T06:49:49;8.40;1.00
8953;DHT22;4511;50.890;8.054;2023-12-29T06:52:16;8.40;1.00
8953;DHT22;4511;50.890;8.054;2023-12-29T06:54:43;8.30;1.00
8953;DHT22;4511;50.890;8.054;2023-12-29T06:57:09;8.40;1.00
8953;DHT22;4511;50.890;8.054;2023-12-29T06:59:41;8.30;1.00
8953;DHT22;4511;50.890;8.054;2023-12-29T07:02:08;8.30;1.00
8953;DHT22;4511;50.890;8.054;2023-12-29T07:04:35;8.30;99.90
8953;DHT22;4511;50.890;8.054;2023-12-29T07:07:01;8.30;99.90
8953;DHT22;4511;50.890;8.054;2023-12-29T07:09:28;8.30;1.00
8953;DHT22;4511;50.890;8.054;2023-12-29T07:11:55;8.30;1.00
8953;DHT22;4511;50.890;8.054;2023-12-29T07:14:22;8.30;1.00
8953;DHT22;4511;50.890;8.054;2023-12-29T07:16:50;8.30;93.40
8953;DHT22;4511;50.890;8.054;2023-12-29T07:19:17;8.30;96.60
8953;DHT22;4511;50.890;8.054;2023-12-29T07:21:43;8.30;99.90
8953;DHT22;4511;50.890;8.054;2023-12-29T07:24:10;8.30;99.90
8953;DHT22;4511;50.890;8.054;2023-12-29T07:26:37;8.30;99.90
8953;DHT22;4511;50.890;8.054;2023-12-29T07:29:04;8.30;99.90
8953;DHT22;4511;50.890;8.054;2023-12-29T07:31:31;8.30;99.90
8953;DHT22;4511;50.890;8.054;2023-12-29T07:34:00;8.30;99.90
8953;DHT22;4511;50.890;8.054;2023-12-29T07:36:27;8.30;99.90
8953;DHT22;4511;50.890;8.054;2023-12-29T07:38:53;8.40;99.90
8953;DHT22;4511;50.890;8.054;2023-12-29T07:41:20;8.40;99.90
8953;DHT22;4511;50.890;8.054;2023-12-29T07:43:47;8.40;39.60
8953;DHT22;4511;50.890;8.054;2023-12-29T07:46:23;8.40;42.10
8953;DHT22;4511;50.890;8.054;2023-12-29T07:48:50;8.40;1.00
8953;DHT22;4511;50.890;8.054;2023-12-29T07:51:19;8.40;1.00
8953;DHT22;4511;50.890;8.054;2023-12-29T07:53:46;8.50;1.00
8953;DHT22;4511;50.890;8.054;2023-12-29T07:56:12;8.50;99.90
8953;DHT22;4511;50.890;8.054;2023-12-29T07:58:39;8.50;99.90
8953;DHT22;4511;50.890;8.054;2023-12-29T08:01:06;8.50;1.00
8953;DHT22;4511;50.890;8.054;2023-12-29T08:03:33;8.50;99.90
8953;DHT22;4511;50.890;8.054;2023-12-29T08:06:01;8.50;1.00
8953;DHT22;4511;50.890;8.054;2023-12-29T08:08:30;8.50;1.00
8953;DHT22;4511;50.890;8.054;2023-12-29T08:10:56;8.60;99.90
8953;DHT22;4511;50.890;8.054;2023-12-29T08:13:23;8.50;1.00
8953;DHT22;4511;50.890;8.054;2023-12-29T08:15:50;8.50;1.00
8953;DHT22;4511;50.890;8.054;2023-12-29T08:18:17;8.50;43.70
8953;DHT22;4511;50.890;8.054;2023-12-29T08:20:45;8.60;90.20
8953;DHT22;4511;50.890;8.054;2023-12-29T08:23:12;8.60;99.80
8953;DHT22;4511;50.890;8.054;2023-12-29T08:25:40;8.60;99.90
8953;DHT22;4511;50.890;8.054;2023-12-29T08:28:07;8.60;99.90
8953;DHT22;4511;50.890;8.054;2023-12-29T08:30:34;8.60;99.90
8953;DHT22;4511;50.890;8.054;2023-12-29T08:33:02;8.60;99.90
8953;DHT22;4511;50.890;8.054;2023-12-29T08:35:29;8.60;99.90
8953;DHT22;4511;50.890;8.054;2023-12-29T08:37:56;8.70;99.90
8953;DHT22;4511;50.890;8.054;2023-12-29T08:40:23;8.60;99.90
8953;DHT22;4511;50.890;8.054;2023-12-29T08:42:51;8.70;99.90
8953;DHT22;4511;50.890;8.054;2023-12-29T08:45:18;8.60;99.90
8953;DHT22;4511;50.890;8.054;2023-12-29T08:47:45;8.60;99.90
8953;DHT22;4511;50.890;8.054;2023-12-29T08:50:12;8.60;99.90
8953;DHT22;4511;50.890;8.054;2023-12-29T08:52:39;8.60;99.90
8953;DHT22;4511;50.890;8.054;2023-12-29T08:55:07;8.60;99.90
8953;DHT22;4511;50.890;8.054;2023-12-29T08:57:35;8.60;99.90
8953;DHT22;4511;50.890;8.054;2023-12-29T09:00:04;8.60;99.90
8953;DHT22;4511;50.890;8.054;2023-12-29T09:02:31;8.60;99.90
8953;DHT22;4511;50.890;8.054;2023-12-29T09:04:58;8.60;99.90
8953;DHT22;4511;50.890;8.054;2023-12-29T09:07:24;8.60;99.90
8953;DHT22;4511;50.890;8.054;2023-12-29T09:09:53;8.60;99.90
8953;DHT22;4511;50.890;8.054;2023-12-29T09:12:20;8.60;99.90
8953;DHT22;4511;50.890;8.054;2023-12-29T09:14:47;8.60;99.90
8953;DHT22;4511;50.890;8.054;2023-12-29T09:17:15;8.60;99.90
8953;DHT22;4511;50.890;8.054;2023-12-29T09:19:41;8.60;99.90
8953;DHT22;4511;50.890;8.054;2023-12-29T09:22:08;8.60;99.90
8953;DHT22;4511;50.890;8.054;2023-12-29T09:24:35;8.70;99.90
8953;DHT22;4511;50.890;8.054;2023-12-29T09:27:02;8.70;99.90
8953;DHT22;4511;50.890;8.054;2023-12-29T09:29:29;8.70;99.90
8953;DHT22;4511;50.890;8.054;2023-12-29T09:31:56;8.70;99.90
8953;DHT22;4511;50.890;8.054;2023-12-29T09:34:24;8.70;99.90
8953;DHT22;4511;50.890;8.054;2023-12-29T09:36:51;8.70;99.90
8953;DHT22;4511;50.890;8.054;2023-12-29T09:39:18;8.70;99.90
8953;DHT22;4511;50.890;8.054;2023-12-29T09:41:46;8.80;99.90
8953;DHT22;4511;50.890;8.054;2023-12-29T09:44:14;8.90;99.90
8953;DHT22;4511;50.890;8.054;2023-12-29T09:46:41;8.90;99.90
8953;DHT22;4511;50.890;8.054;2023-12-29T09:49:09;8.90;99.90
8953;DHT22;4511;50.890;8.054;2023-12-29T09:51:39;8.80;99.90
8953;DHT22;4511;50.890;8.054;2023-12-29T09:54:08;8.80;99.90
8953;DHT22;4511;50.890;8.054;2023-12-29T09:56:36;8.80;99.90
8953;DHT22;4511;50.890;8.054;2023-12-29T09:59:04;8.80;99.90
8953;DHT22;4511;50.890;8.054;2023-12-29T10:01:31;8.80;99.90
8953;DHT22;4511;50.890;8.054;2023-12-29T10:03:58;8.80;99.90
8953;DHT22;4511;50.890;8.054;2023-12-29T10:06:26;8.80;99.90
8953;DHT22;4511;50.890;8.054;2023-12-29T10:08:55;8.90;99.90
8953;DHT22;4511;50.890;8.054;2023-12-29T10:11:24;8.90;99.90
8953;DHT22;4511;50.890;8.054;2023-12-29T10:13:54;8.90;99.90
8953;DHT22;4511;50.890;8.054;2023-12-29T10:16:27;8.90;99.90
8953;DHT22;4511;50.890;8.054;2023-12-29T10:19:03;8.80;99.90
8953;DHT22;4511;50.890;8.054;2023-12-29T10:21:37;8.80;99.90
8953;DHT22;4511;50.890;8.054;2023-12-29T10:24:10;8.80;99.90
8953;DHT22;4511;50.890;8.054;2023-12-29T10:26:40;8.70;99.90
8953;DHT22;4511;50.890;8.054;2023-12-29T10:29:09;8.70;99.90
8953;DHT22;4511;50.890;8.054;2023-12-29T10:31:36;8.70;99.90
8953;DHT22;4511;50.890;8.054;2023-12-29T10:34:20;8.60;99.90
8953;DHT22;4511;50.890;8.054;2023-12-29T10:36:53;8.70;99.90
8953;DHT22;4511;50.890;8.054;2023-12-29T10:39:22;8.60;99.90
8953;DHT22;4511;50.890;8.054;2023-12-29T10:41:49;8.60;99.90
8953;DHT22;4511;50.890;8.054;2023-12-29T10:44:16;8.60;99.90
8953;DHT22;4511;50.890;8.054;2023-12-29T10:46:43;8.60;99.90
8953;DHT22;4511;50.890;8.054;2023-12-29T10:49:12;8.60;99.90
8953;DHT22;4511;50.890;8.054;2023-12-29T10:51:40;8.60;99.90
8953;DHT22;4511;50.890;8.054;2023-12-29T10:54:06;8.60;99.90
8953;DHT22;4511;50.890;8.054;2023-12-29T10:56:34;8.50;99.90
8953;DHT22;4511;50.890;8.054;2023-12-29T10:59:03;8.50;99.90
8953;DHT22;4511;50.890;8.054;2023-12-29T11:01:31;8.60;99.90
8953;DHT22;4511;50.890;8.054;2023-12-29T11:03:59;8.60;99.90
8953;DHT22;4511;50.890;8.054;2023-12-29T11:06:27;8.60;99.90
8953;DHT22;4511;50.890;8.054;2023-12-29T11:08:54;8.60;99.90
8953;DHT22;4511;50.890;8.054;2023-12-29T11:11:21;8.60;99.90
8953;DHT22;4511;50.890;8.054;2023-12-29T11:13:50;8.50;99.90
8953;DHT22;4511;50.890;8.054;2023-12-29T11:16:16;8.50;99.90
8953;DHT22;4511;50.890;8.054;2023-12-29T11:18:47;8.60;99.90
8953;DHT22;4511;50.890;8.054;2023-12-29T11:21:16;8.60;99.90
8953;DHT22;4511;50.890;8.054;2023-12-29T11:23:43;8.60;99.90
8953;DHT22;4511;50.890;8.054;2023-12-29T11:26:10;8.60;99.90
8953;DHT22;4511;50.890;8.054;2023-12-29T11:28:38;8.60;99.90
8953;DHT22;4511;50.890;8.054;2023-12-29T11:31:07;8.60;99.90
8953;DHT22;4511;50.890;8.054;2023-12-29T11:33:38;8.50;99.90
8953;DHT22;4511;50.890;8.054;2023-12-29T11:36:10;8.60;99.90
8953;DHT22;4511;50.890;8.054;2023-12-29T11:38:47;8.60;99.90
8953;DHT22;4511;50.890;8.054;2023-12-29T11:41:21;8.60;99.90
8953;DHT22;4511;50.890;8.054;2023-12-29T11:43:56;8.60;99.90
8953;DHT22;4511;50.890;8.054;2023-12-29T11:46:35;8.70;99.90
8953;DHT22;4511;50.890;8.054;2023-12-29T11:49:02;8.60;99.90
8953;DHT22;4511;50.890;8.054;2023-12-29T11:51:32;8.60;99.90
8953;DHT22;4511;50.890;8.054;2023-12-29T11:53:59;8.60;99.90
8953;DHT22;4511;50.890;8.054;2023-12-29T11:56:36;8.60;99.90
8953;DHT22;4511;50.890;8.054;2023-12-29T11:59:14;8.60;99.90
8953;DHT22;4511;50.890;8.054;2023-12-29T12:01:41;8.60;99.90
8953;DHT22;4511;50.890;8.054;2023-12-29T12:04:37;8.60;99.90
8953;DHT22;4511;50.890;8.054;2023-12-29T12:07:16;8.60;99.90
8953;DHT22;4511;50.890;8.054;2023-12-29T12:09:43;8.60;99.90
8953;DHT22;4511;50.890;8.054;2023-12-29T12:12:14;8.60;99.90
8953;DHT22;4511;50.890;8.054;2023-12-29T12:15:03;8.60;99.90
8953;DHT22;4511;50.890;8.054;2023-12-29T12:17:32;8.60;99.90
8953;DHT22;4511;50.890;8.054;2023-12-29T12:20:02;8.60;99.90
8953;DHT22;4511;50.890;8.054;2023-12-29T12:22:30;8.60;99.90
8953;DHT22;4511;50.890;8.054;2023-12-29T12:24:59;8.60;99.90
8953;DHT22;4511;50.890;8.054;2023-12-29T12:27:26;8.60;99.90
8953;DHT22;4511;50.890;8.054;2023-12-29T12:29:54;8.70;99.90
8953;DHT22;4511;50.890;8.054;2023-12-29T12:32:23;8.70;99.90
8953;DHT22;4511;50.890;8.054;2023-12-29T12:34:51;8.70;99.90
8953;DHT22;4511;50.890;8.054;2023-12-29T12:37:19;8.70;99.90
8953;DHT22;4511;50.890;8.054;2023-12-29T12:39:46;8.70;99.90
8953;DHT22;4511;50.890;8.054;2023-12-29T12:42:13;8.70;99.90
8953;DHT22;4511;50.890;8.054;2023-12-29T12:44:42;8.70;99.90
8953;DHT22;4511;50.890;8.054;2023-12-29T12:47:17;8.70;99.90
8953;DHT22;4511;50.890;8.054;2023-12-29T12:49:44;8.80;99.90
8953;DHT22;4511;50.890;8.054;2023-12-29T12:52:12;8.80;99.90
8953;DHT22;4511;50.890;8.054;2023-12-29T12:54:39;8.70;99.90
8953;DHT22;4511;50.890;8.054;2023-12-29T12:57:07;8.70;99.90
8953;DHT22;4511;50.890;8.054;2023-12-29T12:59:34;8.70;99.90
8953;DHT22;4511;50.890;8.054;2023-12-29T13:02:02;8.70;99.90
8953;DHT22;4511;50.890;8.054;2023-12-29T13:04:31;8.70;99.90
8953;DHT22;4511;50.890;8.054;2023-12-29T13:06:58;8.70;99.90
8953;DHT22;4511;50.890;8.054;2023-12-29T13:09:26;8.70;99.90
8953;DHT22;4511;50.890;8.054;2023-12-29T13:12:08;8.70;99.90
8953;DHT22;4511;50.890;8.054;2023-12-29T13:14:34;8.70;99.90
8953;DHT22;4511;50.890;8.054;2023-12-29T13:17:05;8.80;99.90
8953;DHT22;4511;50.890;8.054;2023-12-29T13:19:32;8.80;99.90
8953;DHT22;4511;50.890;8.054;2023-12-29T13:22:00;8.80;99.90
8953;DHT22;4511;50.890;8.054;2023-12-29T13:24:28;8.80;99.90
8953;DHT22;4511;50.890;8.054;2023-12-29T13:26:58;8.80;99.90
8953;DHT22;4511;50.890;8.054;2023-12-29T13:29:28;8.90;99.90
8953;DHT22;4511;50.890;8.054;2023-12-29T13:31:59;8.90;99.90
8953;DHT22;4511;50.890;8.054;2023-12-29T13:34:31;8.80;99.90
8953;DHT22;4511;50.890;8.054;2023-12-29T13:37:02;8.80;99.90
8953;DHT22;4511;50.890;8.054;2023-12-29T13:39:40;8.80;99.90
8953;DHT22;4511;50.890;8.054;2023-12-29T13:42:11;8.70;99.90
8953;DHT22;4511;50.890;8.054;2023-12-29T13:44:41;8.70;99.90
8953;DHT22;4511;50.890;8.054;2023-12-29T13:47:09;8.80;99.90
8953;DHT22;4511;50.890;8.054;2023-12-29T13:49:37;8.80;99.90
8953;DHT22;4511;50.890;8.054;2023-12-29T13:52:04;8.80;99.90
8953;DHT22;4511;50.890;8.054;2023-12-29T13:54:42;8.80;99.90
8953;DHT22;4511;50.890;8.054;2023-12-29T13:57:09;8.80;99.90
8953;DHT22;4511;50.890;8.054;2023-12-29T13:59:36;8.90;99.90
8953;DHT22;4511;50.890;8.054;2023-12-29T14:02:19;8.80;99.90
8953;DHT22;4511;50.890;8.054;2023-12-29T14:04:47;8.80;99.90
8953;DHT22;4511;50.890;8.054;2023-12-29T14:07:14;8.80;99.90
8953;DHT22;4511;50.890;8.054;2023-12-29T14:09:42;8.90;99.90
8953;DHT22;4511;50.890;8.054;2023-12-29T14:12:09;8.90;99.90
8953;DHT22;4511;50.890;8.054;2023-12-29T14:14:36;8.90;99.90
8953;DHT22;4511;50.890;8.054;2023-12-29T14:17:03;8.80;99.90
8953;DHT22;4511;50.890;8.054;2023-12-29T14:19:34;8.80;99.90
8953;DHT22;4511;50.890;8.054;2023-12-29T14:22:02;8.80;99.90
8953;DHT22;4511;50.890;8.054;2023-12-29T14:24:29;8.80;99.90
8953;DHT22;4511;50.890;8.054;2023-12-29T14:26:57;8.80;99.90
8953;DHT22;4511;50.890;8.054;2023-12-29T14:29:24;8.80;99.90
8953;DHT22;4511;50.890;8.054;2023-12-29T14:31:51;8.90;99.90
8953;DHT22;4511;50.890;8.054;2023-12-29T14:34:19;8.80;99.90
8953;DHT22;4511;50.890;8.054;2023-12-29T14:36:46;8.80;99.90
8953;DHT22;4511;50.890;8.054;2023-12-29T14:39:12;8.80;99.90
8953;DHT22;4511;50.890;8.054;2023-12-29T14:41:41;8.80;99.90
8953;DHT22;4511;50.890;8.054;2023-12-29T14:44:09;8.70;99.90
8953;DHT22;4511;50.890;8.054;2023-12-29T14:46:36;8.70;99.90
8953;DHT22;4511;50.890;8.054;2023-12-29T14:49:03;8.70;99.90
8953;DHT22;4511;50.890;8.054;2023-12-29T14:51:30;8.70;99.90
8953;DHT22;4511;50.890;8.054;2023-12-29T14:53:57;8.70;99.90
8953;DHT22;4511;50.890;8.054;2023-12-29T14:56:24;8.70;99.90
8953;DHT22;4511;50.890;8.054;2023-12-29T14:58:51;8.70;99.90
8953;DHT22;4511;50.890;8.054;2023-12-29T15:01:19;8.70;99.90
8953;DHT22;4511;50.890;8.054;2023-12-29T15:03:46;8.60;99.90
8953;DHT22;4511;50.890;8.054;2023-12-29T15:06:13;8.70;99.90
8953;DHT22;4511;50.890;8.054;2023-12-29T15:08:40;8.60;99.90
8953;DHT22;4511;50.890;8.054;2023-12-29T15:11:06;8.60;99.90
8953;DHT22;4511;50.890;8.054;2023-12-29T15:13:34;8.60;99.90
8953;DHT22;4511;50.890;8.054;2023-12-29T15:16:02;8.60;99.90
8953;DHT22;4511;50.890;8.054;2023-12-29T15:18:30;8.60;99.90
8953;DHT22;4511;50.890;8.054;2023-12-29T15:20:57;8.60;99.90
8953;DHT22;4511;50.890;8.054;2023-12-29T15:23:24;8.60;99.90
8953;DHT22;4511;50.890;8.054;2023-12-29T15:25:53;8.60;99.90
8953;DHT22;4511;50.890;8.054;2023-12-29T15:28:20;8.50;99.90
8953;DHT22;4511;50.890;8.054;2023-12-29T15:30:47;8.50;99.90
8953;DHT22;4511;50.890;8.054;2023-12-29T15:33:15;8.50;99.90
8953;DHT22;4511;50.890;8.054;2023-12-29T15:35:43;8.50;99.90
8953;DHT22;4511;50.890;8.054;2023-12-29T15:38:10;8.50;99.90
8953;DHT22;4511;50.890;8.054;2023-12-29T15:40:37;8.50;99.90
8953;DHT22;4511;50.890;8.054;2023-12-29T15:43:04;8.50;99.90
8953;DHT22;4511;50.890;8.054;2023-12-29T15:45:33;8.50;99.90
8953;DHT22;4511;50.890;8.054;2023-12-29T15:48:00;8.50;99.90
8953;DHT22;4511;50.890;8.054;2023-12-29T15:50:27;8.50;99.90
8953;DHT22;4511;50.890;8.054;2023-12-29T15:52:55;8.50;99.90
8953;DHT22;4511;50.890;8.054;2023-12-29T15:55:21;8.50;99.90
8953;DHT22;4511;50.890;8.054;2023-12-29T15:57:48;8.50;99.90
8953;DHT22;4511;50.890;8.054;2023-12-29T16:00:16;8.50;99.90
8953;DHT22;4511;50.890;8.054;2023-12-29T16:02:42;8.50;99.90
8953;DHT22;4511;50.890;8.054;2023-12-29T16:05:10;8.50;99.90
8953;DHT22;4511;50.890;8.054;2023-12-29T16:07:37;8.50;99.90
8953;DHT22;4511;50.890;8.054;2023-12-29T16:10:06;8.50;99.90
8953;DHT22;4511;50.890;8.054;2023-12-29T16:12:34;8.50;99.90
8953;DHT22;4511;50.890;8.054;2023-12-29T16:15:02;8.40;99.90
8953;DHT22;4511;50.890;8.054;2023-12-29T16:17:30;8.40;99.90
8953;DHT22;4511;50.890;8.054;2023-12-29T16:19:56;8.40;99.90
8953;DHT22;4511;50.890;8.054;2023-12-29T16:22:23;8.40;99.90
8953;DHT22;4511;50.890;8.054;2023-12-29T16:24:50;8.40;99.90
8953;DHT22;4511;50.890;8.054;2023-12-29T16:27:18;8.40;99.90